Hrossey — VSTY6 — position and weather

sailwx.info

Track history (hours):
 
Tides and Currents Weather Stations Pressure Air Temp Water Temp Dewpoint Dewpoint Depression Visibility Wind Speed Wind Dir Waves Ship Positions

Hrossey

Operator: NorthLink Orkey & Shetland Ferries Ltd

Last reported at 2019-Jul-19 20:46 UTC. Time now 2019-Jul-20 13:36 UTC.
Position N 57°48' W 001°34'.

Length 125 m; draft 5.4 m.

Type: Ship. MMSI: 235448000.

Date/timePositionNaut miles runAvg speedWind from/ knotsBaromVisibWave heightAir tempDewpointWater temp
2019-Jul-19 20:46N 57°48' W 001°34'516.3
2019-Jul-19 20:27N 57°43' W 001°35'716.2
2019-Jul-19 20:00N 57°36' W 001°35'816.4
2019-Jul-19 19:30N 57°28' W 001°38'816.8
2019-Jul-19 19:00N 57°21' W 001°46'816.4
2019-Jul-19 18:30N 57°14' W 001°55'714.1
2019-Jul-19 18:00N 57°09' W 002°03'1 2.0
2019-Jul-19 17:29N 57°09' W 002°05'0 0.0
2019-Jul-19 17:01N 57°09' W 002°05'0 0.0
2019-Jul-19 16:28N 57°09' W 002°05'0 0.0
2019-Jul-19 16:00N 57°09' W 002°05'0 0.0
2019-Jul-19 15:30N 57°09' W 002°05'0 0.0
2019-Jul-19 14:59N 57°09' W 002°05'0 0.0
2019-Jul-19 14:28N 57°09' W 002°05'0 0.0
2019-Jul-19 13:59N 57°09' W 002°05'0 0.0
2019-Jul-19 13:28N 57°09' W 002°05'0 0.0
2019-Jul-19 12:59N 57°09' W 002°05'0 0.0
2019-Jul-19 12:28N 57°09' W 002°05'0 0.0
2019-Jul-19 11:56N 57°09' W 002°05'0 0.0
2019-Jul-19 11:30N 57°09' W 002°05'0 0.0
2019-Jul-19 11:00N 57°09' W 002°05'0 0.0
2019-Jul-19 10:30N 57°09' W 002°05'0 0.0
2019-Jul-19 09:59N 57°09' W 002°05'0 0.0
2019-Jul-19 09:29N 57°09' W 002°05'0 0.0
2019-Jul-19 09:00N 57°09' W 002°05'0 0.0
2019-Jul-19 08:30N 57°09' W 002°05'0 0.0
2019-Jul-19 08:00N 57°09' W 002°05'0 0.0
2019-Jul-19 07:24N 57°09' W 002°05'0 0.0
2019-Jul-19 06:59N 57°09' W 002°05'0 0.0
2019-Jul-19 06:30N 57°09' W 002°05'0 0.0
2019-Jul-19 06:00N 57°09' W 002°05'1 1.2
2019-Jul-19 05:31N 57°09' W 002°04'611.8
2019-Jul-19 05:00N 57°13' W 001°57'917.2
2019-Jul-19 04:28N 57°21' W 001°47'715.4
2019-Jul-19 04:00N 57°27' W 001°40'816.0
2019-Jul-19 03:31N 57°34' W 001°36'816.1
2019-Jul-19 03:00N 57°42' W 001°35'7 0.2
2019-Jul-17 20:45N 57°50' W 001°38'416.3
2019-Jul-17 20:30N 57°46' W 001°37'816.4
2019-Jul-17 20:00N 57°37' W 001°37'917.0
2019-Jul-17 19:30N 57°29' W 001°37'816.9
2019-Jul-17 19:00N 57°22' W 001°46'917.0
2019-Jul-17 18:30N 57°15' W 001°55'815.3
2019-Jul-17 18:00N 57°09' W 002°03'1 2.0
2019-Jul-17 17:25N 57°09' W 002°05'0 0.0
2019-Jul-17 16:59N 57°09' W 002°05'0 0.0
2019-Jul-17 16:29N 57°09' W 002°05'0 0.0
2019-Jul-17 15:59N 57°09' W 002°05'0 0.0
2019-Jul-17 15:29N 57°09' W 002°05'0 0.0
2019-Jul-17 14:59N 57°09' W 002°05'0 0.0
2019-Jul-17 14:29N 57°09' W 002°05'0 0.0
2019-Jul-17 13:59N 57°09' W 002°05'0 0.0
2019-Jul-17 13:29N 57°09' W 002°05'0 0.0
2019-Jul-17 12:59N 57°09' W 002°05'0 0.0
2019-Jul-17 12:29N 57°09' W 002°05'0 0.0
2019-Jul-17 11:59N 57°09' W 002°05'0 0.0
2019-Jul-17 11:29N 57°09' W 002°05'0 0.0
2019-Jul-17 10:59N 57°09' W 002°05'0 0.0
2019-Jul-17 10:29N 57°09' W 002°05'0 0.0
2019-Jul-17 09:59N 57°09' W 002°05'0 0.0
2019-Jul-17 09:29N 57°09' W 002°05'0 0.0
2019-Jul-17 08:59N 57°09' W 002°05'0 0.0
2019-Jul-17 08:29N 57°09' W 002°05'0 0.0
2019-Jul-17 07:59N 57°09' W 002°05'0 0.0
2019-Jul-17 07:29N 57°09' W 002°05'0 0.0
2019-Jul-17 06:59N 57°09' W 002°05'0 0.0
2019-Jul-17 06:29N 57°09' W 002°05'0 0.0
2019-Jul-17 05:59N 57°09' W 002°05'1 1.4
2019-Jul-17 05:30N 57°08' W 002°04'713.8
2019-Jul-17 05:01N 57°13' W 001°55'612.7
2019-Jul-17 04:31N 57°18' W 001°48'712.9
2019-Jul-17 03:58N 57°24' W 001°40'612.8
2019-Jul-17 03:30N 57°29' W 001°36'917.8
2019-Jul-17 03:00N 57°38' W 001°36'6 0.2
2019-Jul-15 20:01N 57°44' W 001°36'219.2
2019-Jul-15 19:53N 57°42' W 001°36'719.6
2019-Jul-15 19:30N 57°34' W 001°37'1019.6
2019-Jul-15 19:00N 57°25' W 001°42'1020.1
2019-Jul-15 18:30N 57°16' W 001°52'919.0
2019-Jul-15 18:00N 57°09' W 002°03'1 2.8
2019-Jul-15 17:30N 57°09' W 002°05'0 0.0
2019-Jul-15 17:00N 57°09' W 002°05'0 0.0
2019-Jul-15 16:30N 57°09' W 002°05'0 0.0
2019-Jul-15 16:00N 57°09' W 002°05'0 0.0
2019-Jul-15 15:30N 57°09' W 002°05'0 0.0
2019-Jul-15 15:00N 57°09' W 002°05'0 0.0
2019-Jul-15 14:30N 57°09' W 002°05'0 0.0
2019-Jul-15 14:00N 57°09' W 002°05'0 0.0
2019-Jul-15 13:30N 57°09' W 002°05'0 0.0
2019-Jul-15 13:00N 57°09' W 002°05'0 0.0
2019-Jul-15 12:30N 57°09' W 002°05'0 0.0
2019-Jul-15 12:00N 57°09' W 002°05'0 0.0
2019-Jul-15 11:30N 57°09' W 002°05'0 0.0
2019-Jul-15 11:00N 57°09' W 002°05'0 0.0
2019-Jul-15 10:30N 57°09' W 002°05'0 0.0
2019-Jul-15 10:00N 57°09' W 002°05'0 0.0
2019-Jul-15 09:30N 57°09' W 002°05'0 0.0
2019-Jul-15 09:00N 57°09' W 002°05'0 0.0
2019-Jul-15 08:30N 57°09' W 002°05'0 0.0
2019-Jul-15 08:00N 57°09' W 002°05'0 0.0
2019-Jul-15 07:30N 57°09' W 002°05'0 0.0
2019-Jul-15 07:00N 57°09' W 002°05'0 0.0
2019-Jul-15 06:30N 57°09' W 002°05'0 0.0
2019-Jul-15 06:00N 57°09' W 002°05'1 1.2
2019-Jul-15 05:30N 57°09' W 002°04'612.9
2019-Jul-15 05:00N 57°13' W 001°56'816.5
2019-Jul-15 04:30N 57°20' W 001°48'611.9
2019-Jul-15 04:00N 57°25' W 001°42'612.3
2019-Jul-15 03:30N 57°31' W 001°36'612.7
2019-Jul-15 03:01N 57°37' W 001°34'7615.3
2019-Jul-14 22:01N 58°53' W 001°25'319.4
2019-Jul-14 21:51N 58°56' W 001°24'719.7
2019-Jul-14 21:30N 59°03' W 001°22'1119.6
2019-Jul-14 20:55N 59°14' W 001°18'1119.4
2019-Jul-14 20:20N 59°25' W 001°15'2219.1
2019-Jul-14 19:10N 59°48' W 001°09'4 0.3
2019-Jul-14 04:45N 59°48' W 001°17'516.5
2019-Jul-14 04:29N 59°45' W 001°23'3416.3
2019-Jul-14 02:24N 59°17' W 002°03'1816.4
2019-Jul-14 01:18N 59°04' W 002°27'516.7
2019-Jul-14 01:00N 59°01' W 002°34'816.6
2019-Jul-14 00:30N 59°01' W 002°50'5 9.0
2019-Jul-14 00:00N 58°60' W 002°58'0 0.0
2019-Jul-13 23:27N 58°60' W 002°58'2 4.2
2019-Jul-13 23:00N 59°01' W 002°56'1121.9
2019-Jul-13 22:30N 58°57' W 002°37'1122.7
2019-Jul-13 22:00N 58°47' W 002°28'7322.6
2019-Jul-13 18:47N 57°38' W 001°41'623.3
2019-Jul-13 18:31N 57°32' W 001°40'1223.3
2019-Jul-13 17:59N 57°20' W 001°48'1123.7
2019-Jul-13 17:31N 57°11' W 001°59'4 7.9
2019-Jul-13 17:00N 57°09' W 002°05'0 0.0
2019-Jul-13 16:30N 57°09' W 002°05'0 0.0
2019-Jul-13 16:00N 57°09' W 002°05'0 0.0
2019-Jul-13 15:30N 57°09' W 002°05'0 0.0
2019-Jul-13 15:00N 57°09' W 002°05'0 0.0
2019-Jul-13 14:31N 57°09' W 002°05'0 0.0
2019-Jul-13 14:00N 57°09' W 002°05'0 0.0
2019-Jul-13 13:30N 57°09' W 002°05'0 0.0
2019-Jul-13 13:00N 57°09' W 002°05'0 0.0
2019-Jul-13 12:30N 57°09' W 002°05'0 0.0
2019-Jul-13 12:00N 57°09' W 002°05'0 0.0
2019-Jul-13 11:30N 57°09' W 002°05'0 0.0
2019-Jul-13 11:00N 57°09' W 002°05'0 0.0
2019-Jul-13 10:27N 57°09' W 002°05'0 0.0
2019-Jul-13 10:00N 57°09' W 002°05'0 0.0
2019-Jul-13 09:30N 57°09' W 002°05'0 0.0
2019-Jul-13 09:00N 57°09' W 002°05'0 0.0
2019-Jul-13 08:30N 57°09' W 002°05'0 0.0
2019-Jul-13 08:00N 57°09' W 002°05'0 0.0
2019-Jul-13 07:31N 57°09' W 002°05'0 0.0
2019-Jul-13 07:01N 57°09' W 002°05'0 0.0
2019-Jul-13 06:30N 57°09' W 002°05'0 0.0
2019-Jul-13 05:57N 57°09' W 002°05'1 1.3
2019-Jul-13 05:30N 57°08' W 002°04'714.4
2019-Jul-13 05:00N 57°13' W 001°54'1317.8
2019-Jul-13 04:18N 57°24' W 001°43'518.0
2019-Jul-13 04:01N 57°29' W 001°39'9220.5
2019-Jul-12 23:32N 58°56' W 002°33'120.7
2019-Jul-12 23:29N 58°57' W 002°34'919.6
2019-Jul-12 23:00N 59°01' W 002°51'4 5.3
2019-Jul-12 22:16N 58°60' W 002°58'0 0.0
2019-Jul-12 21:59N 58°60' W 002°58'0 0.0
2019-Jul-12 21:30N 58°60' W 002°58'611.6
2019-Jul-12 21:00N 59°00' W 002°47'7819.5
2019-Jul-12 17:00N 59°60' W 001°08'68 4.1
2019-Jul-12 00:14N 59°04' W 002°27'416.9
2019-Jul-12 00:00N 59°01' W 002°31'815.6
2019-Jul-11 23:30N 59°00' W 002°46'612.2
2019-Jul-11 23:00N 58°60' W 002°58'0 0.2
2019-Jul-11 22:23N 58°60' W 002°58'0 0.0
2019-Jul-11 21:58N 58°60' W 002°58'510.8
2019-Jul-11 21:30N 59°00' W 002°49'1120.9
2019-Jul-11 21:00N 58°53' W 002°35'1823.2
2019-Jul-11 20:15N 58°37' W 002°23'7822.2
2019-Jul-11 16:46N 57°21' W 001°48'623.3
2019-Jul-11 16:30N 57°16' W 001°53'1019.3
2019-Jul-11 16:01N 57°08' W 002°04'1 1.3
2019-Jul-11 15:30N 57°09' W 002°05'0 0.0
2019-Jul-11 15:00N 57°09' W 002°05'0 0.0
2019-Jul-11 14:30N 57°09' W 002°05'0 0.0
2019-Jul-11 14:00N 57°09' W 002°05'0 0.0
2019-Jul-11 13:30N 57°09' W 002°05'0 0.0
2019-Jul-11 12:59N 57°09' W 002°05'0 0.0
2019-Jul-11 12:30N 57°09' W 002°05'0 0.0
2019-Jul-11 11:59N 57°09' W 002°05'0 0.0
2019-Jul-11 11:30N 57°09' W 002°05'0 0.0
2019-Jul-11 11:00N 57°09' W 002°05'0 0.0
2019-Jul-11 10:30N 57°09' W 002°05'0 0.0
2019-Jul-11 10:00N 57°09' W 002°05'0 0.0
2019-Jul-11 09:29N 57°09' W 002°05'0 0.0
2019-Jul-11 08:56N 57°09' W 002°05'0 0.0
2019-Jul-11 08:30N 57°09' W 002°05'0 0.0
2019-Jul-11 07:59N 57°09' W 002°05'0 0.0
2019-Jul-11 07:30N 57°09' W 002°05'0 0.0
2019-Jul-11 07:00N 57°09' W 002°05'0 0.0
2019-Jul-11 06:30N 57°09' W 002°05'0 0.0
2019-Jul-11 06:00N 57°09' W 002°05'1 1.3
2019-Jul-11 05:31N 57°08' W 002°04'713.8
2019-Jul-11 05:00N 57°14' W 001°56'1020.4
2019-Jul-11 04:30N 57°22' W 001°45'1020.5
2019-Jul-11 04:00N 57°32' W 001°42'1121.0
2019-Jul-11 03:29N 57°43' W 001°44'8020.9
2019-Jul-10 23:38N 58°58' W 002°37'319.9
2019-Jul-10 23:30N 58°60' W 002°41'917.1
2019-Jul-10 23:00N 59°01' W 002°57'1 1.8
2019-Jul-10 22:30N 58°60' W 002°58'0 0.0
2019-Jul-10 21:51N 58°60' W 002°58'0 0.0
2019-Jul-10 21:30N 58°60' W 002°58'4 8.3
2019-Jul-10 21:00N 59°01' W 002°51'14 0.7
2019-Jul-10 00:30N 59°05' W 002°26'816.3
2019-Jul-10 00:00N 59°00' W 002°39'817.1
2019-Jul-09 23:30N 59°01' W 002°55'2 4.0
2019-Jul-09 23:01N 58°60' W 002°58'0 0.0
2019-Jul-09 22:30N 58°60' W 002°58'0 0.0
2019-Jul-09 22:00N 58°60' W 002°58'4 7.2
2019-Jul-09 21:30N 59°01' W 002°52'1121.3
2019-Jul-09 21:00N 58°54' W 002°36'  
Track history (hours):
 
Tides and Currents Weather Stations Pressure Air Temp Water Temp Dewpoint Dewpoint Depression Visibility Wind Speed Wind Dir Waves Ship Positions

Hrossey

Operator: NorthLink Orkey & Shetland Ferries Ltd

Last reported at 2019-Jul-19 20:46 UTC. Time now 2019-Jul-20 13:36 UTC.
Position N 57°48' W 001°34'.

Length 125 m; draft 5.4 m.

Type: Ship. MMSI: 235448000.

Date/timePositionNaut miles runAvg speedWind from/ knotsBaromVisibWave heightAir tempDewpointWater temp
2019-Jul-19 20:46N 57°48' W 001°34'516.3
2019-Jul-19 20:27N 57°43' W 001°35'716.2
2019-Jul-19 20:00N 57°36' W 001°35'816.4
2019-Jul-19 19:30N 57°28' W 001°38'816.8
2019-Jul-19 19:00N 57°21' W 001°46'816.4
2019-Jul-19 18:30N 57°14' W 001°55'714.1
2019-Jul-19 18:00N 57°09' W 002°03'1 2.0
2019-Jul-19 17:29N 57°09' W 002°05'0 0.0
2019-Jul-19 17:01N 57°09' W 002°05'0 0.0
2019-Jul-19 16:28N 57°09' W 002°05'0 0.0
2019-Jul-19 16:00N 57°09' W 002°05'0 0.0
2019-Jul-19 15:30N 57°09' W 002°05'0 0.0
2019-Jul-19 14:59N 57°09' W 002°05'0 0.0
2019-Jul-19 14:28N 57°09' W 002°05'0 0.0
2019-Jul-19 13:59N 57°09' W 002°05'0 0.0
2019-Jul-19 13:28N 57°09' W 002°05'0 0.0
2019-Jul-19 12:59N 57°09' W 002°05'0 0.0
2019-Jul-19 12:28N 57°09' W 002°05'0 0.0
2019-Jul-19 11:56N 57°09' W 002°05'0 0.0
2019-Jul-19 11:30N 57°09' W 002°05'0 0.0
2019-Jul-19 11:00N 57°09' W 002°05'0 0.0
2019-Jul-19 10:30N 57°09' W 002°05'0 0.0
2019-Jul-19 09:59N 57°09' W 002°05'0 0.0
2019-Jul-19 09:29N 57°09' W 002°05'0 0.0
2019-Jul-19 09:00N 57°09' W 002°05'0 0.0
2019-Jul-19 08:30N 57°09' W 002°05'0 0.0
2019-Jul-19 08:00N 57°09' W 002°05'0 0.0
2019-Jul-19 07:24N 57°09' W 002°05'0 0.0
2019-Jul-19 06:59N 57°09' W 002°05'0 0.0
2019-Jul-19 06:30N 57°09' W 002°05'0 0.0
2019-Jul-19 06:00N 57°09' W 002°05'1 1.2
2019-Jul-19 05:31N 57°09' W 002°04'611.8
2019-Jul-19 05:00N 57°13' W 001°57'917.2
2019-Jul-19 04:28N 57°21' W 001°47'715.4
2019-Jul-19 04:00N 57°27' W 001°40'816.0
2019-Jul-19 03:31N 57°34' W 001°36'816.1
2019-Jul-19 03:00N 57°42' W 001°35'7 0.2
2019-Jul-17 20:45N 57°50' W 001°38'416.3
2019-Jul-17 20:30N 57°46' W 001°37'816.4
2019-Jul-17 20:00N 57°37' W 001°37'917.0
2019-Jul-17 19:30N 57°29' W 001°37'816.9
2019-Jul-17 19:00N 57°22' W 001°46'917.0
2019-Jul-17 18:30N 57°15' W 001°55'815.3
2019-Jul-17 18:00N 57°09' W 002°03'1 2.0
2019-Jul-17 17:25N 57°09' W 002°05'0 0.0
2019-Jul-17 16:59N 57°09' W 002°05'0 0.0
2019-Jul-17 16:29N 57°09' W 002°05'0 0.0
2019-Jul-17 15:59N 57°09' W 002°05'0 0.0
2019-Jul-17 15:29N 57°09' W 002°05'0 0.0
2019-Jul-17 14:59N 57°09' W 002°05'0 0.0
2019-Jul-17 14:29N 57°09' W 002°05'0 0.0
2019-Jul-17 13:59N 57°09' W 002°05'0 0.0
2019-Jul-17 13:29N 57°09' W 002°05'0 0.0
2019-Jul-17 12:59N 57°09' W 002°05'0 0.0
2019-Jul-17 12:29N 57°09' W 002°05'0 0.0
2019-Jul-17 11:59N 57°09' W 002°05'0 0.0
2019-Jul-17 11:29N 57°09' W 002°05'0 0.0
2019-Jul-17 10:59N 57°09' W 002°05'0 0.0
2019-Jul-17 10:29N 57°09' W 002°05'0 0.0
2019-Jul-17 09:59N 57°09' W 002°05'0 0.0
2019-Jul-17 09:29N 57°09' W 002°05'0 0.0
2019-Jul-17 08:59N 57°09' W 002°05'0 0.0
2019-Jul-17 08:29N 57°09' W 002°05'0 0.0
2019-Jul-17 07:59N 57°09' W 002°05'0 0.0
2019-Jul-17 07:29N 57°09' W 002°05'0 0.0
2019-Jul-17 06:59N 57°09' W 002°05'0 0.0
2019-Jul-17 06:29N 57°09' W 002°05'0 0.0
2019-Jul-17 05:59N 57°09' W 002°05'1 1.4
2019-Jul-17 05:30N 57°08' W 002°04'713.8
2019-Jul-17 05:01N 57°13' W 001°55'612.7
2019-Jul-17 04:31N 57°18' W 001°48'712.9
2019-Jul-17 03:58N 57°24' W 001°40'612.8
2019-Jul-17 03:30N 57°29' W 001°36'917.8
2019-Jul-17 03:00N 57°38' W 001°36'6 0.2
2019-Jul-15 20:01N 57°44' W 001°36'219.2
2019-Jul-15 19:53N 57°42' W 001°36'719.6
2019-Jul-15 19:30N 57°34' W 001°37'1019.6
2019-Jul-15 19:00N 57°25' W 001°42'1020.1
2019-Jul-15 18:30N 57°16' W 001°52'919.0
2019-Jul-15 18:00N 57°09' W 002°03'1 2.8
2019-Jul-15 17:30N 57°09' W 002°05'0 0.0
2019-Jul-15 17:00N 57°09' W 002°05'0 0.0
2019-Jul-15 16:30N 57°09' W 002°05'0 0.0
2019-Jul-15 16:00N 57°09' W 002°05'0 0.0
2019-Jul-15 15:30N 57°09' W 002°05'0 0.0
2019-Jul-15 15:00N 57°09' W 002°05'0 0.0
2019-Jul-15 14:30N 57°09' W 002°05'0 0.0
2019-Jul-15 14:00N 57°09' W 002°05'0 0.0
2019-Jul-15 13:30N 57°09' W 002°05'0 0.0
2019-Jul-15 13:00N 57°09' W 002°05'0 0.0
2019-Jul-15 12:30N 57°09' W 002°05'0 0.0
2019-Jul-15 12:00N 57°09' W 002°05'0 0.0
2019-Jul-15 11:30N 57°09' W 002°05'0 0.0
2019-Jul-15 11:00N 57°09' W 002°05'0 0.0
2019-Jul-15 10:30N 57°09' W 002°05'0 0.0
2019-Jul-15 10:00N 57°09' W 002°05'0 0.0
2019-Jul-15 09:30N 57°09' W 002°05'0 0.0
2019-Jul-15 09:00N 57°09' W 002°05'0 0.0
2019-Jul-15 08:30N 57°09' W 002°05'0 0.0
2019-Jul-15 08:00N 57°09' W 002°05'0 0.0
2019-Jul-15 07:30N 57°09' W 002°05'0 0.0
2019-Jul-15 07:00N 57°09' W 002°05'0 0.0
2019-Jul-15 06:30N 57°09' W 002°05'0 0.0
2019-Jul-15 06:00N 57°09' W 002°05'1 1.2
2019-Jul-15 05:30N 57°09' W 002°04'612.9
2019-Jul-15 05:00N 57°13' W 001°56'816.5
2019-Jul-15 04:30N 57°20' W 001°48'611.9
2019-Jul-15 04:00N 57°25' W 001°42'612.3
2019-Jul-15 03:30N 57°31' W 001°36'612.7
2019-Jul-15 03:01N 57°37' W 001°34'7615.3
2019-Jul-14 22:01N 58°53' W 001°25'319.4
2019-Jul-14 21:51N 58°56' W 001°24'719.7
2019-Jul-14 21:30N 59°03' W 001°22'1119.6
2019-Jul-14 20:55N 59°14' W 001°18'1119.4
2019-Jul-14 20:20N 59°25' W 001°15'2219.1
2019-Jul-14 19:10N 59°48' W 001°09'4 0.3
2019-Jul-14 04:45N 59°48' W 001°17'516.5
2019-Jul-14 04:29N 59°45' W 001°23'3416.3
2019-Jul-14 02:24N 59°17' W 002°03'1816.4
2019-Jul-14 01:18N 59°04' W 002°27'516.7
2019-Jul-14 01:00N 59°01' W 002°34'816.6
2019-Jul-14 00:30N 59°01' W 002°50'5 9.0
2019-Jul-14 00:00N 58°60' W 002°58'0 0.0
2019-Jul-13 23:27N 58°60' W 002°58'2 4.2
2019-Jul-13 23:00N 59°01' W 002°56'1121.9
2019-Jul-13 22:30N 58°57' W 002°37'1122.7
2019-Jul-13 22:00N 58°47' W 002°28'7322.6
2019-Jul-13 18:47N 57°38' W 001°41'623.3
2019-Jul-13 18:31N 57°32' W 001°40'1223.3
2019-Jul-13 17:59N 57°20' W 001°48'1123.7
2019-Jul-13 17:31N 57°11' W 001°59'4 7.9
2019-Jul-13 17:00N 57°09' W 002°05'0 0.0
2019-Jul-13 16:30N 57°09' W 002°05'0 0.0
2019-Jul-13 16:00N 57°09' W 002°05'0 0.0
2019-Jul-13 15:30N 57°09' W 002°05'0 0.0
2019-Jul-13 15:00N 57°09' W 002°05'0 0.0
2019-Jul-13 14:31N 57°09' W 002°05'0 0.0
2019-Jul-13 14:00N 57°09' W 002°05'0 0.0
2019-Jul-13 13:30N 57°09' W 002°05'0 0.0
2019-Jul-13 13:00N 57°09' W 002°05'0 0.0
2019-Jul-13 12:30N 57°09' W 002°05'0 0.0
2019-Jul-13 12:00N 57°09' W 002°05'0 0.0
2019-Jul-13 11:30N 57°09' W 002°05'0 0.0
2019-Jul-13 11:00N 57°09' W 002°05'0 0.0
2019-Jul-13 10:27N 57°09' W 002°05'0 0.0
2019-Jul-13 10:00N 57°09' W 002°05'0 0.0
2019-Jul-13 09:30N 57°09' W 002°05'0 0.0
2019-Jul-13 09:00N 57°09' W 002°05'0 0.0
2019-Jul-13 08:30N 57°09' W 002°05'0 0.0
2019-Jul-13 08:00N 57°09' W 002°05'0 0.0
2019-Jul-13 07:31N 57°09' W 002°05'0 0.0
2019-Jul-13 07:01N 57°09' W 002°05'0 0.0
2019-Jul-13 06:30N 57°09' W 002°05'0 0.0
2019-Jul-13 05:57N 57°09' W 002°05'1 1.3
2019-Jul-13 05:30N 57°08' W 002°04'714.4
2019-Jul-13 05:00N 57°13' W 001°54'1317.8
2019-Jul-13 04:18N 57°24' W 001°43'518.0
2019-Jul-13 04:01N 57°29' W 001°39'9220.5
2019-Jul-12 23:32N 58°56' W 002°33'120.7
2019-Jul-12 23:29N 58°57' W 002°34'919.6
2019-Jul-12 23:00N 59°01' W 002°51'4 5.3
2019-Jul-12 22:16N 58°60' W 002°58'0 0.0
2019-Jul-12 21:59N 58°60' W 002°58'0 0.0
2019-Jul-12 21:30N 58°60' W 002°58'611.6
2019-Jul-12 21:00N 59°00' W 002°47'7819.5
2019-Jul-12 17:00N 59°60' W 001°08'68 4.1
2019-Jul-12 00:14N 59°04' W 002°27'416.9
2019-Jul-12 00:00N 59°01' W 002°31'815.6
2019-Jul-11 23:30N 59°00' W 002°46'612.2
2019-Jul-11 23:00N 58°60' W 002°58'0 0.2
2019-Jul-11 22:23N 58°60' W 002°58'0 0.0
2019-Jul-11 21:58N 58°60' W 002°58'510.8
2019-Jul-11 21:30N 59°00' W 002°49'1120.9
2019-Jul-11 21:00N 58°53' W 002°35'1823.2
2019-Jul-11 20:15N 58°37' W 002°23'7822.2
2019-Jul-11 16:46N 57°21' W 001°48'623.3
2019-Jul-11 16:30N 57°16' W 001°53'1019.3
2019-Jul-11 16:01N 57°08' W 002°04'1 1.3
2019-Jul-11 15:30N 57°09' W 002°05'0 0.0
2019-Jul-11 15:00N 57°09' W 002°05'0 0.0
2019-Jul-11 14:30N 57°09' W 002°05'0 0.0
2019-Jul-11 14:00N 57°09' W 002°05'0 0.0
2019-Jul-11 13:30N 57°09' W 002°05'0 0.0
2019-Jul-11 12:59N 57°09' W 002°05'0 0.0
2019-Jul-11 12:30N 57°09' W 002°05'0 0.0
2019-Jul-11 11:59N 57°09' W 002°05'0 0.0
2019-Jul-11 11:30N 57°09' W 002°05'0 0.0
2019-Jul-11 11:00N 57°09' W 002°05'0 0.0
2019-Jul-11 10:30N 57°09' W 002°05'0 0.0
2019-Jul-11 10:00N 57°09' W 002°05'0 0.0
2019-Jul-11 09:29N 57°09' W 002°05'0 0.0
2019-Jul-11 08:56N 57°09' W 002°05'0 0.0
2019-Jul-11 08:30N 57°09' W 002°05'0 0.0
2019-Jul-11 07:59N 57°09' W 002°05'0 0.0
2019-Jul-11 07:30N 57°09' W 002°05'0 0.0
2019-Jul-11 07:00N 57°09' W 002°05'0 0.0
2019-Jul-11 06:30N 57°09' W 002°05'0 0.0
2019-Jul-11 06:00N 57°09' W 002°05'1 1.3
2019-Jul-11 05:31N 57°08' W 002°04'713.8
2019-Jul-11 05:00N 57°14' W 001°56'1020.4
2019-Jul-11 04:30N 57°22' W 001°45'1020.5
2019-Jul-11 04:00N 57°32' W 001°42'1121.0
2019-Jul-11 03:29N 57°43' W 001°44'8020.9
2019-Jul-10 23:38N 58°58' W 002°37'319.9
2019-Jul-10 23:30N 58°60' W 002°41'917.1
2019-Jul-10 23:00N 59°01' W 002°57'1 1.8
2019-Jul-10 22:30N 58°60' W 002°58'0 0.0
2019-Jul-10 21:51N 58°60' W 002°58'0 0.0
2019-Jul-10 21:30N 58°60' W 002°58'4 8.3
2019-Jul-10 21:00N 59°01' W 002°51'14 0.7
2019-Jul-10 00:30N 59°05' W 002°26'816.3
2019-Jul-10 00:00N 59°00' W 002°39'817.1
2019-Jul-09 23:30N 59°01' W 002°55'2 4.0
2019-Jul-09 23:01N 58°60' W 002°58'0 0.0
2019-Jul-09 22:30N 58°60' W 002°58'0 0.0
2019-Jul-09 22:00N 58°60' W 002°58'4 7.2
2019-Jul-09 21:30N 59°01' W 002°52'1121.3
2019-Jul-09 21:00N 58°54' W 002°36'  

Dump ship's entire track history